sensor_id;sensor_type;location;lat;lon;timestamp;pressure;altitude;pressure_sealevel;temperature;humidity
79645;BME280;69117;47.148;18.954;2024-02-15T00:02:37;101204.41;;;5.33;100.00
79645;BME280;69117;47.148;18.954;2024-02-15T00:05:39;101206.06;;;5.34;100.00
79645;BME280;69117;47.148;18.954;2024-02-15T00:08:41;101197.09;;;5.38;100.00
79645;BME280;69117;47.148;18.954;2024-02-15T00:11:43;101203.03;;;5.42;100.00
79645;BME280;69117;47.148;18.954;2024-02-15T00:14:44;101210.13;;;5.40;100.00
79645;BME280;69117;47.148;18.954;2024-02-15T00:17:46;101201.31;;;5.41;100.00
79645;BME280;69117;47.148;18.954;2024-02-15T00:20:48;101195.72;;;5.47;100.00
79645;BME280;69117;47.148;18.954;2024-02-15T00:23:50;101199.75;;;5.53;100.00
79645;BME280;69117;47.148;18.954;2024-02-15T00:26:52;101202.19;;;5.56;100.00
79645;BME280;69117;47.148;18.954;2024-02-15T00:29:55;101197.91;;;5.55;100.00
79645;BME280;69117;47.148;18.954;2024-02-15T00:32:56;101208.78;;;5.63;100.00
79645;BME280;69117;47.148;18.954;2024-02-15T00:35:58;101206.22;;;5.61;100.00
79645;BME280;69117;47.148;18.954;2024-02-15T00:39:00;101200.72;;;5.66;100.00
79645;BME280;69117;47.148;18.954;2024-02-15T00:42:02;101202.84;;;5.59;100.00
79645;BME280;69117;47.148;18.954;2024-02-15T00:45:05;101196.94;;;5.56;100.00
79645;BME280;69117;47.148;18.954;2024-02-15T00:48:07;101221.47;;;5.55;100.00
79645;BME280;69117;47.148;18.954;2024-02-15T00:51:09;101208.16;;;5.43;100.00
79645;BME280;69117;47.148;18.954;2024-02-15T00:54:11;101218.28;;;5.49;100.00
79645;BME280;69117;47.148;18.954;2024-02-15T00:57:12;101224.28;;;5.51;100.00
79645;BME280;69117;47.148;18.954;2024-02-15T01:00:14;101222.56;;;5.50;100.00
79645;BME280;69117;47.148;18.954;2024-02-15T01:03:16;101211.25;;;5.50;100.00
79645;BME280;69117;47.148;18.954;2024-02-15T01:06:18;101212.28;;;5.47;100.00
79645;BME280;69117;47.148;18.954;2024-02-15T01:09:21;101211.53;;;5.45;100.00
79645;BME280;69117;47.148;18.954;2024-02-15T01:12:23;101209.09;;;5.42;100.00
79645;BME280;69117;47.148;18.954;2024-02-15T01:15:25;101203.63;;;5.31;100.00
79645;BME280;69117;47.148;18.954;2024-02-15T01:18:26;101212.44;;;5.30;100.00
79645;BME280;69117;47.148;18.954;2024-02-15T01:21:28;101203.47;;;5.34;100.00
79645;BME280;69117;47.148;18.954;2024-02-15T01:24:30;101209.66;;;5.47;100.00
79645;BME280;69117;47.148;18.954;2024-02-15T01:27:31;101204.34;;;5.49;100.00
79645;BME280;69117;47.148;18.954;2024-02-15T01:30:33;101192.91;;;5.50;100.00
79645;BME280;69117;47.148;18.954;2024-02-15T01:33:34;101203.97;;;5.55;100.00
79645;BME280;69117;47.148;18.954;2024-02-15T01:36:37;101204.16;;;5.52;100.00
79645;BME280;69117;47.148;18.954;2024-02-15T01:39:39;101194.69;;;5.49;100.00
79645;BME280;69117;47.148;18.954;2024-02-15T01:42:41;101203.78;;;5.58;100.00
79645;BME280;69117;47.148;18.954;2024-02-15T01:45:43;101198.81;;;5.54;100.00
79645;BME280;69117;47.148;18.954;2024-02-15T01:48:45;101188.63;;;5.49;100.00
79645;BME280;69117;47.148;18.954;2024-02-15T01:51:48;101192.84;;;5.51;100.00
79645;BME280;69117;47.148;18.954;2024-02-15T01:54:52;101192.06;;;5.49;100.00
79645;BME280;69117;47.148;18.954;2024-02-15T01:57:55;101190.47;;;5.47;100.00
79645;BME280;69117;47.148;18.954;2024-02-15T02:00:57;101188.44;;;5.52;100.00
79645;BME280;69117;47.148;18.954;2024-02-15T02:04:01;101187.22;;;5.58;100.00
79645;BME280;69117;47.148;18.954;2024-02-15T02:07:04;101191.53;;;5.59;100.00
79645;BME280;69117;47.148;18.954;2024-02-15T02:10:07;101194.91;;;5.61;100.00
79645;BME280;69117;47.148;18.954;2024-02-15T02:13:10;101187.41;;;5.55;100.00
79645;BME280;69117;47.148;18.954;2024-02-15T02:16:30;101194.16;;;5.59;100.00
79645;BME280;69117;47.148;18.954;2024-02-15T02:19:36;101196.50;;;5.63;100.00
79645;BME280;69117;47.148;18.954;2024-02-15T02:22:40;101176.75;;;5.58;100.00
79645;BME280;69117;47.148;18.954;2024-02-15T02:25:43;101187.31;;;5.56;100.00
79645;BME280;69117;47.148;18.954;2024-02-15T02:28:45;101173.84;;;5.48;100.00
79645;BME280;69117;47.148;18.954;2024-02-15T02:31:48;101178.41;;;5.59;100.00
79645;BME280;69117;47.148;18.954;2024-02-15T02:34:50;101179.94;;;5.63;100.00
79645;BME280;69117;47.148;18.954;2024-02-15T02:37:52;101174.84;;;5.60;100.00
79645;BME280;69117;47.148;18.954;2024-02-15T02:40:56;101186.28;;;5.59;100.00
79645;BME280;69117;47.148;18.954;2024-02-15T02:43:58;101182.16;;;5.55;100.00
79645;BME280;69117;47.148;18.954;2024-02-15T02:47:00;101183.44;;;5.47;100.00
79645;BME280;69117;47.148;18.954;2024-02-15T02:50:01;101187.84;;;5.47;100.00
79645;BME280;69117;47.148;18.954;2024-02-15T02:53:04;101179.50;;;5.40;100.00
79645;BME280;69117;47.148;18.954;2024-02-15T02:56:07;101183.75;;;5.43;100.00
79645;BME280;69117;47.148;18.954;2024-02-15T02:59:11;101187.78;;;5.48;100.00
79645;BME280;69117;47.148;18.954;2024-02-15T03:02:12;101180.09;;;5.45;100.00
79645;BME280;69117;47.148;18.954;2024-02-15T03:05:14;101186.25;;;5.44;100.00
79645;BME280;69117;47.148;18.954;2024-02-15T03:08:16;101173.63;;;5.37;100.00
79645;BME280;69117;47.148;18.954;2024-02-15T03:11:18;101194.88;;;5.46;100.00
79645;BME280;69117;47.148;18.954;2024-02-15T03:14:20;101200.59;;;5.39;100.00
79645;BME280;69117;47.148;18.954;2024-02-15T03:17:23;101198.50;;;5.44;100.00
79645;BME280;69117;47.148;18.954;2024-02-15T03:20:25;101198.44;;;5.45;100.00
79645;BME280;69117;47.148;18.954;2024-02-15T03:23:26;101200.88;;;5.48;100.00
79645;BME280;69117;47.148;18.954;2024-02-15T03:26:31;101199.94;;;5.49;100.00
79645;BME280;69117;47.148;18.954;2024-02-15T03:29:38;101193.19;;;5.45;100.00
79645;BME280;69117;47.148;18.954;2024-02-15T03:32:40;101180.25;;;5.28;100.00
79645;BME280;69117;47.148;18.954;2024-02-15T03:35:42;101188.56;;;5.35;100.00
79645;BME280;69117;47.148;18.954;2024-02-15T03:38:43;101192.97;;;5.34;100.00
79645;BME280;69117;47.148;18.954;2024-02-15T03:41:46;101175.78;;;5.14;100.00
79645;BME280;69117;47.148;18.954;2024-02-15T03:44:48;101192.44;;;5.13;100.00
79645;BME280;69117;47.148;18.954;2024-02-15T03:47:50;101196.34;;;5.06;100.00
79645;BME280;69117;47.148;18.954;2024-02-15T03:50:51;101192.03;;;5.05;100.00
79645;BME280;69117;47.148;18.954;2024-02-15T03:53:53;101178.28;;;5.01;100.00
79645;BME280;69117;47.148;18.954;2024-02-15T03:56:55;101184.88;;;5.09;100.00
79645;BME280;69117;47.148;18.954;2024-02-15T03:59:59;101183.75;;;5.13;100.00
79645;BME280;69117;47.148;18.954;2024-02-15T04:03:01;101180.66;;;5.06;100.00
79645;BME280;69117;47.148;18.954;2024-02-15T04:06:03;101179.81;;;5.05;100.00
79645;BME280;69117;47.148;18.954;2024-02-15T04:09:06;101195.66;;;5.18;100.00
79645;BME280;69117;47.148;18.954;2024-02-15T04:12:08;101192.75;;;5.23;100.00
79645;BME280;69117;47.148;18.954;2024-02-15T04:15:10;101186.41;;;5.27;100.00
79645;BME280;69117;47.148;18.954;2024-02-15T04:18:19;101183.28;;;5.20;100.00
79645;BME280;69117;47.148;18.954;2024-02-15T04:21:21;101177.03;;;5.23;100.00
79645;BME280;69117;47.148;18.954;2024-02-15T04:24:23;101164.69;;;5.25;100.00
79645;BME280;69117;47.148;18.954;2024-02-15T04:27:25;101164.25;;;5.33;100.00
79645;BME280;69117;47.148;18.954;2024-02-15T04:30:26;101173.88;;;5.32;100.00
79645;BME280;69117;47.148;18.954;2024-02-15T04:33:28;101171.25;;;5.32;100.00
79645;BME280;69117;47.148;18.954;2024-02-15T04:36:30;101176.25;;;5.37;100.00
79645;BME280;69117;47.148;18.954;2024-02-15T04:39:35;101175.94;;;5.41;100.00
79645;BME280;69117;47.148;18.954;2024-02-15T04:42:37;101183.91;;;5.40;100.00
79645;BME280;69117;47.148;18.954;2024-02-15T04:45:42;101174.56;;;5.36;100.00
79645;BME280;69117;47.148;18.954;2024-02-15T04:48:44;101180.97;;;5.16;100.00
79645;BME280;69117;47.148;18.954;2024-02-15T04:51:46;101182.84;;;5.28;100.00
79645;BME280;69117;47.148;18.954;2024-02-15T04:54:49;101180.06;;;5.31;100.00
79645;BME280;69117;47.148;18.954;2024-02-15T04:57:50;101191.78;;;5.40;100.00
79645;BME280;69117;47.148;18.954;2024-02-15T05:00:57;101186.63;;;5.38;100.00
79645;BME280;69117;47.148;18.954;2024-02-15T05:04:01;101185.59;;;5.41;100.00
79645;BME280;69117;47.148;18.954;2024-02-15T05:07:09;101186.53;;;5.40;100.00
79645;BME280;69117;47.148;18.954;2024-02-15T05:10:11;101189.81;;;5.43;100.00
79645;BME280;69117;47.148;18.954;2024-02-15T05:13:14;101189.44;;;5.49;100.00
79645;BME280;69117;47.148;18.954;2024-02-15T05:16:18;101203.03;;;5.56;100.00
79645;BME280;69117;47.148;18.954;2024-02-15T05:19:20;101195.16;;;5.56;100.00
79645;BME280;69117;47.148;18.954;2024-02-15T05:22:21;101202.78;;;5.61;100.00
79645;BME280;69117;47.148;18.954;2024-02-15T05:25:23;101197.31;;;5.49;100.00
79645;BME280;69117;47.148;18.954;2024-02-15T05:28:27;101200.88;;;5.48;100.00
79645;BME280;69117;47.148;18.954;2024-02-15T05:31:29;101191.41;;;5.46;100.00
79645;BME280;69117;47.148;18.954;2024-02-15T05:34:31;101182.72;;;5.45;100.00
79645;BME280;69117;47.148;18.954;2024-02-15T05:37:33;101205.66;;;5.56;100.00
79645;BME280;69117;47.148;18.954;2024-02-15T05:40:36;101209.69;;;5.62;100.00
79645;BME280;69117;47.148;18.954;2024-02-15T05:43:39;101208.66;;;5.64;100.00
79645;BME280;69117;47.148;18.954;2024-02-15T05:46:42;101207.81;;;5.64;100.00
79645;BME280;69117;47.148;18.954;2024-02-15T05:49:44;101213.72;;;5.67;100.00
79645;BME280;69117;47.148;18.954;2024-02-15T05:52:46;101217.94;;;5.70;100.00
79645;BME280;69117;47.148;18.954;2024-02-15T05:55:48;101214.56;;;5.68;100.00
79645;BME280;69117;47.148;18.954;2024-02-15T05:58:51;101226.38;;;5.75;100.00
79645;BME280;69117;47.148;18.954;2024-02-15T06:01:53;101219.81;;;5.68;100.00
79645;BME280;69117;47.148;18.954;2024-02-15T06:04:54;101237.06;;;5.72;100.00
79645;BME280;69117;47.148;18.954;2024-02-15T06:08:05;101232.91;;;5.68;100.00
79645;BME280;69117;47.148;18.954;2024-02-15T06:11:06;101227.13;;;5.63;100.00
79645;BME280;69117;47.148;18.954;2024-02-15T06:14:08;101240.78;;;5.68;100.00
79645;BME280;69117;47.148;18.954;2024-02-15T06:17:10;101240.66;;;5.55;100.00
79645;BME280;69117;47.148;18.954;2024-02-15T06:20:13;101226.78;;;5.53;100.00
79645;BME280;69117;47.148;18.954;2024-02-15T06:23:21;101239.28;;;5.64;100.00
79645;BME280;69117;47.148;18.954;2024-02-15T06:26:24;101235.06;;;5.61;100.00
79645;BME280;69117;47.148;18.954;2024-02-15T06:29:26;101248.38;;;5.72;100.00
79645;BME280;69117;47.148;18.954;2024-02-15T06:32:46;101241.63;;;5.68;100.00
79645;BME280;69117;47.148;18.954;2024-02-15T06:36:06;101247.91;;;5.80;100.00
79645;BME280;69117;47.148;18.954;2024-02-15T06:39:26;101251.09;;;5.85;100.00
79645;BME280;69117;47.148;18.954;2024-02-15T06:42:43;101247.66;;;5.85;100.00
79645;BME280;69117;47.148;18.954;2024-02-15T06:45:46;101265.19;;;5.99;100.00
79645;BME280;69117;47.148;18.954;2024-02-15T06:48:48;101271.78;;;6.06;100.00
79645;BME280;69117;47.148;18.954;2024-02-15T06:51:50;101263.97;;;6.04;100.00
79645;BME280;69117;47.148;18.954;2024-02-15T06:54:52;101257.63;;;6.08;100.00
79645;BME280;69117;47.148;18.954;2024-02-15T06:57:54;101271.03;;;6.18;100.00
79645;BME280;69117;47.148;18.954;2024-02-15T07:00:56;101259.19;;;6.11;100.00
79645;BME280;69117;47.148;18.954;2024-02-15T07:03:58;101257.06;;;6.17;100.00
79645;BME280;69117;47.148;18.954;2024-02-15T07:07:00;101265.75;;;6.32;100.00
79645;BME280;69117;47.148;18.954;2024-02-15T07:10:04;101251.81;;;6.32;100.00
79645;BME280;69117;47.148;18.954;2024-02-15T07:13:07;101257.03;;;6.46;100.00
79645;BME280;69117;47.148;18.954;2024-02-15T07:16:08;101255.66;;;6.40;100.00
79645;BME280;69117;47.148;18.954;2024-02-15T07:19:10;101268.50;;;6.45;100.00
79645;BME280;69117;47.148;18.954;2024-02-15T07:22:12;101253.19;;;6.52;100.00
79645;BME280;69117;47.148;18.954;2024-02-15T07:25:14;101274.78;;;6.57;100.00
79645;BME280;69117;47.148;18.954;2024-02-15T07:28:15;101265.56;;;6.64;100.00
79645;BME280;69117;47.148;18.954;2024-02-15T07:31:17;101264.13;;;6.73;100.00
79645;BME280;69117;47.148;18.954;2024-02-15T07:34:19;101269.94;;;6.78;100.00
79645;BME280;69117;47.148;18.954;2024-02-15T07:37:21;101281.34;;;6.91;100.00
79645;BME280;69117;47.148;18.954;2024-02-15T07:40:27;101278.22;;;6.99;100.00
79645;BME280;69117;47.148;18.954;2024-02-15T07:43:30;101273.03;;;6.84;100.00
79645;BME280;69117;47.148;18.954;2024-02-15T07:46:31;101275.25;;;6.91;100.00
79645;BME280;69117;47.148;18.954;2024-02-15T07:49:34;101284.16;;;7.02;100.00
79645;BME280;69117;47.148;18.954;2024-02-15T07:52:36;101286.81;;;7.15;100.00
79645;BME280;69117;47.148;18.954;2024-02-15T07:55:38;101272.72;;;7.16;100.00
79645;BME280;69117;47.148;18.954;2024-02-15T07:58:40;101281.31;;;7.32;100.00
79645;BME280;69117;47.148;18.954;2024-02-15T08:01:53;101275.34;;;7.43;100.00
79645;BME280;69117;47.148;18.954;2024-02-15T08:04:55;101283.56;;;7.51;100.00
79645;BME280;69117;47.148;18.954;2024-02-15T08:07:57;101283.50;;;7.66;100.00
79645;BME280;69117;47.148;18.954;2024-02-15T08:11:00;101278.03;;;7.69;100.00
79645;BME280;69117;47.148;18.954;2024-02-15T08:14:03;101281.00;;;7.90;100.00
79645;BME280;69117;47.148;18.954;2024-02-15T08:17:04;101275.84;;;8.01;100.00
79645;BME280;69117;47.148;18.954;2024-02-15T08:20:10;101282.38;;;8.08;100.00
79645;BME280;69117;47.148;18.954;2024-02-15T08:23:12;101284.59;;;8.14;100.00
79645;BME280;69117;47.148;18.954;2024-02-15T08:26:14;101288.06;;;8.15;100.00
79645;BME280;69117;47.148;18.954;2024-02-15T08:29:16;101287.97;;;8.29;100.00
79645;BME280;69117;47.148;18.954;2024-02-15T08:32:17;101289.03;;;8.39;100.00
79645;BME280;69117;47.148;18.954;2024-02-15T08:35:19;101292.41;;;8.41;100.00
79645;BME280;69117;47.148;18.954;2024-02-15T08:38:22;101279.13;;;8.43;100.00
79645;BME280;69117;47.148;18.954;2024-02-15T08:41:25;101296.59;;;8.57;100.00
79645;BME280;69117;47.148;18.954;2024-02-15T08:44:28;101287.84;;;8.31;100.00
79645;BME280;69117;47.148;18.954;2024-02-15T08:47:30;101298.69;;;8.52;100.00
79645;BME280;69117;47.148;18.954;2024-02-15T08:50:31;101295.00;;;8.29;100.00
79645;BME280;69117;47.148;18.954;2024-02-15T08:53:33;101297.22;;;8.22;100.00
79645;BME280;69117;47.148;18.954;2024-02-15T08:56:38;101288.06;;;8.27;100.00
79645;BME280;69117;47.148;18.954;2024-02-15T08:59:39;101295.50;;;8.59;100.00
79645;BME280;69117;47.148;18.954;2024-02-15T09:02:45;101288.66;;;8.69;100.00
79645;BME280;69117;47.148;18.954;2024-02-15T09:05:47;101284.63;;;8.77;100.00
79645;BME280;69117;47.148;18.954;2024-02-15T09:08:49;101285.25;;;8.80;100.00
79645;BME280;69117;47.148;18.954;2024-02-15T09:11:51;101293.09;;;8.31;100.00
79645;BME280;69117;47.148;18.954;2024-02-15T09:14:53;101288.81;;;8.42;100.00
79645;BME280;69117;47.148;18.954;2024-02-15T09:17:55;101282.88;;;8.64;100.00
79645;BME280;69117;47.148;18.954;2024-02-15T09:20:56;101291.38;;;8.68;100.00
79645;BME280;69117;47.148;18.954;2024-02-15T09:23:58;101289.97;;;8.38;100.00
79645;BME280;69117;47.148;18.954;2024-02-15T09:27:01;101302.97;;;8.78;100.00
79645;BME280;69117;47.148;18.954;2024-02-15T09:30:03;101286.81;;;8.83;100.00
79645;BME280;69117;47.148;18.954;2024-02-15T09:33:09;101275.63;;;9.40;100.00
79645;BME280;69117;47.148;18.954;2024-02-15T09:36:11;101279.88;;;8.82;100.00
79645;BME280;69117;47.148;18.954;2024-02-15T09:39:14;101294.41;;;9.59;100.00
79645;BME280;69117;47.148;18.954;2024-02-15T09:42:15;101292.91;;;9.79;100.00
79645;BME280;69117;47.148;18.954;2024-02-15T09:45:17;101292.00;;;10.14;100.00
79645;BME280;69117;47.148;18.954;2024-02-15T09:48:23;101290.78;;;9.96;100.00
79645;BME280;69117;47.148;18.954;2024-02-15T09:51:26;101304.63;;;10.11;100.00
79645;BME280;69117;47.148;18.954;2024-02-15T09:54:30;101291.22;;;10.36;100.00
79645;BME280;69117;47.148;18.954;2024-02-15T09:57:32;101290.84;;;10.74;100.00
79645;BME280;69117;47.148;18.954;2024-02-15T10:00:35;101294.53;;;10.94;100.00
79645;BME280;69117;47.148;18.954;2024-02-15T10:03:37;101302.78;;;11.01;100.00
79645;BME280;69117;47.148;18.954;2024-02-15T10:06:42;101293.59;;;11.28;100.00
79645;BME280;69117;47.148;18.954;2024-02-15T10:09:44;101299.81;;;11.38;100.00
79645;BME280;69117;47.148;18.954;2024-02-15T10:12:47;101296.09;;;11.61;100.00
79645;BME280;69117;47.148;18.954;2024-02-15T10:15:57;101308.22;;;11.64;100.00
79645;BME280;69117;47.148;18.954;2024-02-15T10:19:09;101300.31;;;11.32;100.00
79645;BME280;69117;47.148;18.954;2024-02-15T10:22:12;101300.88;;;11.03;100.00
79645;BME280;69117;47.148;18.954;2024-02-15T10:25:16;101301.63;;;10.83;100.00
79645;BME280;69117;47.148;18.954;2024-02-15T10:28:21;101297.06;;;10.73;100.00
79645;BME280;69117;47.148;18.954;2024-02-15T10:31:26;101297.22;;;10.49;100.00
79645;BME280;69117;47.148;18.954;2024-02-15T10:34:28;101293.50;;;10.52;100.00
79645;BME280;69117;47.148;18.954;2024-02-15T10:37:32;101294.19;;;10.31;100.00
79645;BME280;69117;47.148;18.954;2024-02-15T10:40:34;101295.91;;;10.32;100.00
79645;BME280;69117;47.148;18.954;2024-02-15T10:43:36;101284.38;;;10.45;100.00
79645;BME280;69117;47.148;18.954;2024-02-15T10:46:41;101299.81;;;10.83;100.00
79645;BME280;69117;47.148;18.954;2024-02-15T10:49:43;101289.38;;;10.93;100.00
79645;BME280;69117;47.148;18.954;2024-02-15T10:52:57;101288.53;;;10.92;100.00
79645;BME280;69117;47.148;18.954;2024-02-15T10:56:26;101290.25;;;11.46;100.00
79645;BME280;69117;47.148;18.954;2024-02-15T10:59:31;101289.41;;;11.78;100.00
79645;BME280;69117;47.148;18.954;2024-02-15T11:02:37;101279.41;;;12.03;100.00
79645;BME280;69117;47.148;18.954;2024-02-15T11:05:40;101276.59;;;12.25;100.00
79645;BME280;69117;47.148;18.954;2024-02-15T11:08:44;101281.50;;;12.30;100.00
79645;BME280;69117;47.148;18.954;2024-02-15T11:11:46;101281.06;;;12.04;100.00
79645;BME280;69117;47.148;18.954;2024-02-15T11:14:51;101278.47;;;12.34;100.00
79645;BME280;69117;47.148;18.954;2024-02-15T11:17:54;101277.19;;;12.29;100.00
79645;BME280;69117;47.148;18.954;2024-02-15T11:20:58;101271.72;;;12.30;100.00
79645;BME280;69117;47.148;18.954;2024-02-15T11:24:24;101280.63;;;11.78;100.00
79645;BME280;69117;47.148;18.954;2024-02-15T11:27:30;101270.03;;;12.20;100.00
79645;BME280;69117;47.148;18.954;2024-02-15T11:30:33;101272.41;;;12.23;100.00
79645;BME280;69117;47.148;18.954;2024-02-15T11:33:36;101269.66;;;12.34;100.00
79645;BME280;69117;47.148;18.954;2024-02-15T11:36:38;101272.31;;;12.34;100.00
79645;BME280;69117;47.148;18.954;2024-02-15T11:39:44;101259.13;;;11.92;100.00
79645;BME280;69117;47.148;18.954;2024-02-15T11:42:52;101265.41;;;11.59;100.00
79645;BME280;69117;47.148;18.954;2024-02-15T11:46:00;101265.78;;;11.65;100.00
79645;BME280;69117;47.148;18.954;2024-02-15T11:49:02;101266.53;;;11.56;100.00
79645;BME280;69117;47.148;18.954;2024-02-15T11:52:09;101244.34;;;11.68;100.00
79645;BME280;69117;47.148;18.954;2024-02-15T11:55:13;101265.84;;;11.96;100.00
79645;BME280;69117;47.148;18.954;2024-02-15T11:58:16;101251.63;;;11.97;100.00
79645;BME280;69117;47.148;18.954;2024-02-15T12:01:24;101256.16;;;11.85;100.00
79645;BME280;69117;47.148;18.954;2024-02-15T12:04:44;101242.25;;;12.14;100.00
79645;BME280;69117;47.148;18.954;2024-02-15T12:08:05;101240.72;;;11.49;100.00
79645;BME280;69117;47.148;18.954;2024-02-15T12:11:25;101240.84;;;11.68;100.00
79645;BME280;69117;47.148;18.954;2024-02-15T12:14:45;101234.06;;;12.27;100.00
79645;BME280;69117;47.148;18.954;2024-02-15T12:18:15;101242.50;;;12.42;100.00
79645;BME280;69117;47.148;18.954;2024-02-15T12:21:36;101235.38;;;12.42;100.00
79645;BME280;69117;47.148;18.954;2024-02-15T12:24:45;101243.28;;;12.23;100.00
79645;BME280;69117;47.148;18.954;2024-02-15T12:27:55;101234.28;;;12.45;100.00
79645;BME280;69117;47.148;18.954;2024-02-15T12:30:57;101232.72;;;12.42;100.00
79645;BME280;69117;47.148;18.954;2024-02-15T12:34:03;101220.78;;;12.57;100.00
79645;BME280;69117;47.148;18.954;2024-02-15T12:37:09;101220.25;;;12.73;100.00
79645;BME280;69117;47.148;18.954;2024-02-15T12:40:12;101212.44;;;12.62;100.00
79645;BME280;69117;47.148;18.954;2024-02-15T12:43:17;101215.81;;;12.93;100.00
79645;BME280;69117;47.148;18.954;2024-02-15T12:46:21;101206.31;;;13.00;100.00
79645;BME280;69117;47.148;18.954;2024-02-15T12:52:38;101195.66;;;12.61;100.00
79645;BME280;69117;47.148;18.954;2024-02-15T12:55:40;101208.00;;;13.01;100.00
79645;BME280;69117;47.148;18.954;2024-02-15T12:58:42;101208.13;;;12.90;100.00
79645;BME280;69117;47.148;18.954;2024-02-15T13:01:45;101194.72;;;12.72;100.00
79645;BME280;69117;47.148;18.954;2024-02-15T13:04:50;101194.59;;;12.74;100.00
79645;BME280;69117;47.148;18.954;2024-02-15T13:07:53;101202.00;;;12.90;100.00
79645;BME280;69117;47.148;18.954;2024-02-15T13:11:07;101200.44;;;13.06;100.00
79645;BME280;69117;47.148;18.954;2024-02-15T13:14:11;101190.97;;;13.14;100.00
79645;BME280;69117;47.148;18.954;2024-02-15T13:17:14;101197.97;;;13.05;100.00
79645;BME280;69117;47.148;18.954;2024-02-15T13:20:15;101191.63;;;12.57;100.00
79645;BME280;69117;47.148;18.954;2024-02-15T13:23:21;101202.22;;;12.48;100.00
79645;BME280;69117;47.148;18.954;2024-02-15T13:26:27;101207.69;;;12.75;100.00
79645;BME280;69117;47.148;18.954;2024-02-15T13:29:29;101202.97;;;12.89;100.00
79645;BME280;69117;47.148;18.954;2024-02-15T13:32:38;101184.50;;;12.68;100.00
79645;BME280;69117;47.148;18.954;2024-02-15T13:35:40;101194.88;;;12.80;100.00
79645;BME280;69117;47.148;18.954;2024-02-15T13:38:43;101190.03;;;12.35;100.00
79645;BME280;69117;47.148;18.954;2024-02-15T13:41:44;101196.75;;;12.49;100.00
79645;BME280;69117;47.148;18.954;2024-02-15T13:44:46;101184.75;;;12.45;100.00
79645;BME280;69117;47.148;18.954;2024-02-15T13:47:52;101190.59;;;11.99;100.00
79645;BME280;69117;47.148;18.954;2024-02-15T13:50:58;101191.16;;;12.43;100.00
79645;BME280;69117;47.148;18.954;2024-02-15T13:54:00;101179.47;;;12.55;100.00
79645;BME280;69117;47.148;18.954;2024-02-15T13:57:01;101191.50;;;12.78;100.00
79645;BME280;69117;47.148;18.954;2024-02-15T14:00:04;101186.22;;;12.88;100.00
79645;BME280;69117;47.148;18.954;2024-02-15T14:03:07;101172.94;;;12.78;100.00
79645;BME280;69117;47.148;18.954;2024-02-15T14:06:11;101176.31;;;12.90;100.00
79645;BME280;69117;47.148;18.954;2024-02-15T14:09:13;101176.75;;;12.95;100.00
79645;BME280;69117;47.148;18.954;2024-02-15T14:12:15;101180.63;;;12.91;100.00
79645;BME280;69117;47.148;18.954;2024-02-15T14:15:17;101176.72;;;12.66;100.00
79645;BME280;69117;47.148;18.954;2024-02-15T14:18:19;101173.50;;;12.53;100.00
79645;BME280;69117;47.148;18.954;2024-02-15T14:21:21;101172.72;;;11.91;100.00
79645;BME280;69117;47.148;18.954;2024-02-15T14:24:23;101174.59;;;11.79;100.00
79645;BME280;69117;47.148;18.954;2024-02-15T14:27:25;101175.16;;;11.83;100.00
79645;BME280;69117;47.148;18.954;2024-02-15T14:30:27;101176.38;;;12.00;100.00
79645;BME280;69117;47.148;18.954;2024-02-15T14:33:47;101162.31;;;11.99;100.00
79645;BME280;69117;47.148;18.954;2024-02-15T14:36:51;101172.78;;;11.80;100.00
79645;BME280;69117;47.148;18.954;2024-02-15T14:39:53;101180.34;;;11.84;100.00
79645;BME280;69117;47.148;18.954;2024-02-15T14:42:56;101169.81;;;11.94;100.00
79645;BME280;69117;47.148;18.954;2024-02-15T14:45:58;101165.50;;;11.72;100.00
79645;BME280;69117;47.148;18.954;2024-02-15T14:49:02;101163.75;;;11.61;100.00
79645;BME280;69117;47.148;18.954;2024-02-15T14:52:05;101160.09;;;11.53;100.00
79645;BME280;69117;47.148;18.954;2024-02-15T14:55:07;101156.00;;;11.69;100.00
79645;BME280;69117;47.148;18.954;2024-02-15T14:58:09;101166.75;;;11.68;100.00
79645;BME280;69117;47.148;18.954;2024-02-15T15:01:15;101160.28;;;11.40;100.00
79645;BME280;69117;47.148;18.954;2024-02-15T15:04:16;101168.50;;;11.37;100.00
79645;BME280;69117;47.148;18.954;2024-02-15T15:07:19;101170.50;;;11.44;100.00
79645;BME280;69117;47.148;18.954;2024-02-15T15:10:39;101159.59;;;11.38;100.00
79645;BME280;69117;47.148;18.954;2024-02-15T15:13:59;101161.13;;;11.40;100.00
79645;BME280;69117;47.148;18.954;2024-02-15T15:17:01;101172.75;;;11.49;100.00
79645;BME280;69117;47.148;18.954;2024-02-15T15:20:05;101162.31;;;11.48;100.00
79645;BME280;69117;47.148;18.954;2024-02-15T15:23:11;101170.34;;;11.25;100.00
79645;BME280;69117;47.148;18.954;2024-02-15T15:26:21;101167.19;;;11.31;100.00
79645;BME280;69117;47.148;18.954;2024-02-15T15:29:23;101168.69;;;11.24;100.00
79645;BME280;69117;47.148;18.954;2024-02-15T15:32:24;101170.63;;;11.22;100.00
79645;BME280;69117;47.148;18.954;2024-02-15T15:35:27;101164.44;;;11.12;100.00
79645;BME280;69117;47.148;18.954;2024-02-15T15:38:34;101168.44;;;10.95;100.00
79645;BME280;69117;47.148;18.954;2024-02-15T15:41:36;101169.66;;;11.02;100.00
79645;BME280;69117;47.148;18.954;2024-02-15T15:44:39;101173.50;;;10.98;100.00
79645;BME280;69117;47.148;18.954;2024-02-15T15:47:41;101164.41;;;10.91;100.00